Non è richiesta alcuna attenzione speciale.   -   Non ci sono nessun avvisi

Nearby METAR Reports

 

LEZL - Sevilla, Spain
Distance from station: ENE 8km
Dati ricevuti: 22/01/2019 12:30
Sereno
Sereno
 Vento da OSO
Vento: OSO 6 km/h
Temperatura: 11°C
P.to Rugiada: 6°C
Umidità: 72%
Barometro: 1022 hPa
Summary: Sereno
Visibility: greater than 10 km
2019/01/22 11:30 LEZL 221130Z 25003KT CAVOK 11/06 Q1022 NOSIG
LEMO - Morón, Spain
Distance from station: SE 43km
Dati ricevuti: 22/01/2019 13:00
Sereno
Sereno
 Vento da OSO
Vento: OSO 20 km/h
Temperatura: 10°C
Temperatura Vento: 7°C
P.to Rugiada: 6°C
Umidità: 76%
Barometro: 1022 hPa
Summary: Sereno
Visibility: greater than 10 km
2019/01/22 12:00 LEMO 221200Z 25011KT 220V280 CAVOK 10/06 Q1022 NOSIG
LEJR - Jeréz, Spain
Distance from station: S 71km
Dati ricevuti: 22/01/2019 13:00
Few Clouds
Few Clouds
 Vento da ONO
Vento: ONO 26 km/h
Temperatura: 13°C
P.to Rugiada: 6°C
Umidità: 63%
Barometro: 1022 hPa
Clouds: Few Clouds
Visibility: 10 km
Cloud details: Few Clouds 1219 m
2019/01/22 12:00 LEJR 221200Z 30014KT 260V330 9999 FEW040 13/06 Q1022
 
LERT - Rota, Spain
Distance from station: SSO 89km
Dati ricevuti: 22/01/2019 12:00
Sereno
Sereno
 Vento da ONO
Vento: ONO 20 km/h
Temperatura: 12°C
P.to Rugiada: 7°C
Umidità: 72%
Barometro: 1024 hPa
Summary: Sereno
Visibility: greater than 10 km
2019/01/22 11:00 LERT 221100Z 30011KT 280V340 CAVOK 12/07 Q1024 NOSIG
LEMG - Málaga, Spain
Distance from station: ESE 157km
Dati ricevuti: 22/01/2019 12:30
Few Clouds
Few Clouds
 Vento da ONO
Vento: ONO 19 km/h
Temperatura: 13°C
P.to Rugiada: 3°C
Umidità: 51%
Barometro: 1020 hPa
Clouds: Few Clouds
Visibility: 10 km
Cloud details: Few Clouds 914 m
2019/01/22 11:30 LEMG 221130Z 30010KT 9999 FEW030 13/03 Q1020 NOSIG
LEBA - Córdoba, Spain
Distance from station: ENE 115km
Dati ricevuti: 22/01/2019 12:30
Sereno
Sereno
 Vento da OSO
Vento: OSO 7 km/h
Temperatura: 7°C
Temperatura Vento: 6°C
P.to Rugiada: 3°C
Umidità: 76%
Barometro: 1021 hPa
Summary: Sereno
Visibility: greater than 10 km
2019/01/22 11:30 LEBA 221130Z 24004KT 190V300 CAVOK 07/03 Q1021
 
LEGR - Granada, Spain
Distance from station: E 198km
Dati ricevuti: 22/01/2019 12:30
Few Clouds
Few Clouds
 Vento da varies
Vento: varies 2 km/h
Temperatura: 4°C
P.to Rugiada: 1°C
Umidità: 81%
Barometro: 1020 hPa
Clouds: Few Clouds
Visibility: 10 km
Cloud details: Few Clouds 1219 m
2019/01/22 11:30 LEGR 221130Z VRB01KT 9999 FEW040 04/01 Q1020
LEAM - Almería, Spain
Distance from station: E 326km
Dati ricevuti: 22/01/2019 12:30
Sereno
Sereno
 Vento da S
Vento: S 9 km/h
Temperatura: 15°C
P.to Rugiada: 0°C
Umidità: 36%
Barometro: 1017 hPa
Summary: Sereno
Visibility: greater than 10 km
2019/01/22 11:30 LEAM 221130Z 19005KT 150V220 CAVOK 15/00 Q1017
LEMD - Madrid/Barajas, Spain
Distance from station: NNE 402km
Dati ricevuti: 22/01/2019 12:30
Sereno
Sereno
 Vento da SE
Vento: SE 6 km/h
Temperatura: 4°C
P.to Rugiada: 0°C
Umidità: 75%
Barometro: 1016 hPa
Summary: Sereno
Visibility: greater than 10 km
2019/01/22 11:30 LEMD 221130Z 13003KT 080V210 CAVOK 04/00 Q1016 NOSIG
 
LEVD - Valladolid, Spain
Distance from station: N 492km
Dati ricevuti: 22/01/2019 12:30
Coperto
Coperto
 Vento da OSO
Vento: OSO 24 km/h
Temperatura: 2°C
Temperatura Vento: -3°C
P.to Rugiada: 1°C
Umidità: 93%
Barometro: 1016 hPa
Clouds: Coperto
Visibility: 10 km
Cloud details: Molto nuvoloso 853 m
Coperto 1189 m
2019/01/22 11:30 LEVD 221130Z 25013KT 9999 BKN028 OVC039 02/01 Q1016
LEBL - Barcelona, Spain
Distance from station: NE 816km
Dati ricevuti: 22/01/2019 12:30
Sereno
Sereno
 Vento da NO
Vento: NO 20 km/h, Raffica: 39 km/h
Temperatura: 7°C
Temperatura Vento: 4°C
P.to Rugiada: 0°C
Umidità: 61%
Barometro: 1013 hPa
Summary: Sereno
Visibility: greater than 10 km
2019/01/22 11:30 LEBL 221130Z 32011G21KT CAVOK 07/M00 Q1013 NOSIG
LEVC - Valencia, Spain
Distance from station: ENE 535km
Dati ricevuti: 22/01/2019 12:30
Few Clouds
Few Clouds
 Vento da ONO
Vento: ONO 15 km/h
Temperatura: 13°C
P.to Rugiada: -4°C
Umidità: 31%
Barometro: 1014 hPa
Clouds: Few Clouds
Visibility: 10 km
Cloud details: Few Clouds 914 m
2019/01/22 11:30 LEVC 221130Z 29008KT 250V320 9999 FEW030 13/M04 Q1014 NOSIG